sensor_id;sensor_type;location;lat;lon;timestamp;temperature;humidity
65044;DHT22;51617;48.158;16.464;2022-08-19T00:02:24;25.50;61.10
65044;DHT22;51617;48.158;16.464;2022-08-19T00:04:49;25.60;60.80
65044;DHT22;51617;48.158;16.464;2022-08-19T00:07:21;25.60;60.60
65044;DHT22;51617;48.158;16.464;2022-08-19T00:09:46;25.60;60.50
65044;DHT22;51617;48.158;16.464;2022-08-19T00:12:12;25.60;60.90
65044;DHT22;51617;48.158;16.464;2022-08-19T00:14:37;25.50;61.40
65044;DHT22;51617;48.158;16.464;2022-08-19T00:17:03;25.40;62.50
65044;DHT22;51617;48.158;16.464;2022-08-19T00:19:29;25.30;62.00
65044;DHT22;51617;48.158;16.464;2022-08-19T00:21:55;25.40;62.10
65044;DHT22;51617;48.158;16.464;2022-08-19T00:24:21;25.30;62.80
65044;DHT22;51617;48.158;16.464;2022-08-19T00:26:48;25.10;62.10
65044;DHT22;51617;48.158;16.464;2022-08-19T00:29:15;25.00;62.80
65044;DHT22;51617;48.158;16.464;2022-08-19T00:31:41;24.90;63.30
65044;DHT22;51617;48.158;16.464;2022-08-19T00:34:08;24.80;63.60
65044;DHT22;51617;48.158;16.464;2022-08-19T00:36:34;24.90;64.00
65044;DHT22;51617;48.158;16.464;2022-08-19T00:38:59;24.80;64.10
65044;DHT22;51617;48.158;16.464;2022-08-19T00:41:25;24.70;64.40
65044;DHT22;51617;48.158;16.464;2022-08-19T00:44:25;24.70;63.90
65044;DHT22;51617;48.158;16.464;2022-08-19T00:46:46;24.60;64.20
65044;DHT22;51617;48.158;16.464;2022-08-19T00:51:45;24.60;64.20
65044;DHT22;51617;48.158;16.464;2022-08-19T00:54:12;24.70;64.20
65044;DHT22;51617;48.158;16.464;2022-08-19T00:56:37;24.70;64.30
65044;DHT22;51617;48.158;16.464;2022-08-19T00:59:03;24.70;64.90
65044;DHT22;51617;48.158;16.464;2022-08-19T01:01:31;24.60;64.70
65044;DHT22;51617;48.158;16.464;2022-08-19T01:03:57;24.60;65.10
65044;DHT22;51617;48.158;16.464;2022-08-19T01:06:23;24.50;66.40
65044;DHT22;51617;48.158;16.464;2022-08-19T01:08:48;24.50;67.80
65044;DHT22;51617;48.158;16.464;2022-08-19T01:11:14;24.40;70.00
65044;DHT22;51617;48.158;16.464;2022-08-19T01:13:39;24.40;70.40
65044;DHT22;51617;48.158;16.464;2022-08-19T01:16:06;24.30;73.40
65044;DHT22;51617;48.158;16.464;2022-08-19T01:18:32;24.30;73.80
65044;DHT22;51617;48.158;16.464;2022-08-19T01:21:02;24.20;74.80
65044;DHT22;51617;48.158;16.464;2022-08-19T01:23:31;24.20;75.60
65044;DHT22;51617;48.158;16.464;2022-08-19T01:26:10;24.10;76.00
65044;DHT22;51617;48.158;16.464;2022-08-19T01:28:36;24.10;77.60
65044;DHT22;51617;48.158;16.464;2022-08-19T01:31:03;24.10;77.90
65044;DHT22;51617;48.158;16.464;2022-08-19T01:33:29;24.00;78.90
65044;DHT22;51617;48.158;16.464;2022-08-19T01:36:03;24.00;79.00
65044;DHT22;51617;48.158;16.464;2022-08-19T01:38:29;24.00;79.80
65044;DHT22;51617;48.158;16.464;2022-08-19T01:40:56;23.90;80.60
65044;DHT22;51617;48.158;16.464;2022-08-19T01:43:22;23.90;80.90
65044;DHT22;51617;48.158;16.464;2022-08-19T01:45:48;23.90;81.00
65044;DHT22;51617;48.158;16.464;2022-08-19T01:48:13;24.00;81.10
65044;DHT22;51617;48.158;16.464;2022-08-19T01:50:39;24.00;80.60
65044;DHT22;51617;48.158;16.464;2022-08-19T01:53:06;24.00;81.30
65044;DHT22;51617;48.158;16.464;2022-08-19T01:55:31;24.00;81.10
65044;DHT22;51617;48.158;16.464;2022-08-19T01:57:58;24.00;81.00
65044;DHT22;51617;48.158;16.464;2022-08-19T02:00:25;24.00;81.60
65044;DHT22;51617;48.158;16.464;2022-08-19T02:02:52;24.00;81.50
65044;DHT22;51617;48.158;16.464;2022-08-19T02:05:17;24.00;81.80
65044;DHT22;51617;48.158;16.464;2022-08-19T02:07:46;23.90;81.70
65044;DHT22;51617;48.158;16.464;2022-08-19T02:10:13;23.80;82.70
65044;DHT22;51617;48.158;16.464;2022-08-19T02:12:39;23.60;83.20
65044;DHT22;51617;48.158;16.464;2022-08-19T02:15:05;23.50;83.50
65044;DHT22;51617;48.158;16.464;2022-08-19T02:17:31;23.50;84.50
65044;DHT22;51617;48.158;16.464;2022-08-19T02:19:57;23.40;84.30
65044;DHT22;51617;48.158;16.464;2022-08-19T02:22:23;23.30;84.70
65044;DHT22;51617;48.158;16.464;2022-08-19T02:24:51;23.30;84.70
65044;DHT22;51617;48.158;16.464;2022-08-19T02:27:16;23.40;84.50
65044;DHT22;51617;48.158;16.464;2022-08-19T02:29:42;23.50;84.40
65044;DHT22;51617;48.158;16.464;2022-08-19T02:32:08;23.40;84.50
65044;DHT22;51617;48.158;16.464;2022-08-19T02:34:33;23.40;84.70
65044;DHT22;51617;48.158;16.464;2022-08-19T02:36:59;23.40;85.10
65044;DHT22;51617;48.158;16.464;2022-08-19T02:39:25;23.40;85.10
65044;DHT22;51617;48.158;16.464;2022-08-19T02:41:51;23.40;85.60
65044;DHT22;51617;48.158;16.464;2022-08-19T02:44:17;23.50;85.20
65044;DHT22;51617;48.158;16.464;2022-08-19T02:46:44;23.60;84.60
65044;DHT22;51617;48.158;16.464;2022-08-19T02:49:10;23.60;85.60
65044;DHT22;51617;48.158;16.464;2022-08-19T02:51:37;23.50;86.40
65044;DHT22;51617;48.158;16.464;2022-08-19T02:54:04;23.40;86.00
65044;DHT22;51617;48.158;16.464;2022-08-19T02:56:30;23.50;85.80
65044;DHT22;51617;48.158;16.464;2022-08-19T02:58:56;23.50;85.40
65044;DHT22;51617;48.158;16.464;2022-08-19T03:03:50;23.60;84.80
65044;DHT22;51617;48.158;16.464;2022-08-19T03:06:16;23.60;84.30
65044;DHT22;51617;48.158;16.464;2022-08-19T03:08:42;23.70;84.10
65044;DHT22;51617;48.158;16.464;2022-08-19T03:11:19;23.60;83.90
65044;DHT22;51617;48.158;16.464;2022-08-19T03:13:44;23.60;83.80
65044;DHT22;51617;48.158;16.464;2022-08-19T03:16:10;23.60;84.30
65044;DHT22;51617;48.158;16.464;2022-08-19T03:18:36;23.60;84.20
65044;DHT22;51617;48.158;16.464;2022-08-19T03:21:02;23.60;83.40
65044;DHT22;51617;48.158;16.464;2022-08-19T03:23:28;23.60;83.50
65044;DHT22;51617;48.158;16.464;2022-08-19T03:25:53;23.60;83.10
65044;DHT22;51617;48.158;16.464;2022-08-19T03:28:19;23.60;83.40
65044;DHT22;51617;48.158;16.464;2022-08-19T03:30:54;23.50;83.90
65044;DHT22;51617;48.158;16.464;2022-08-19T03:33:22;23.40;83.80
65044;DHT22;51617;48.158;16.464;2022-08-19T03:35:58;23.50;83.80
65044;DHT22;51617;48.158;16.464;2022-08-19T03:38:24;23.60;83.50
65044;DHT22;51617;48.158;16.464;2022-08-19T03:40:49;23.50;83.50
65044;DHT22;51617;48.158;16.464;2022-08-19T03:43:15;23.50;83.40
65044;DHT22;51617;48.158;16.464;2022-08-19T03:45:42;23.50;83.50
65044;DHT22;51617;48.158;16.464;2022-08-19T03:48:08;23.50;83.40
65044;DHT22;51617;48.158;16.464;2022-08-19T03:50:38;23.40;83.60
65044;DHT22;51617;48.158;16.464;2022-08-19T03:53:03;23.40;83.80
65044;DHT22;51617;48.158;16.464;2022-08-19T03:55:29;23.20;84.80
65044;DHT22;51617;48.158;16.464;2022-08-19T03:57:55;23.20;84.40
65044;DHT22;51617;48.158;16.464;2022-08-19T04:00:21;23.30;84.40
65044;DHT22;51617;48.158;16.464;2022-08-19T04:02:47;23.30;83.70
65044;DHT22;51617;48.158;16.464;2022-08-19T04:05:12;23.30;84.30
65044;DHT22;51617;48.158;16.464;2022-08-19T04:07:39;23.40;84.00
65044;DHT22;51617;48.158;16.464;2022-08-19T04:10:04;23.30;83.90
65044;DHT22;51617;48.158;16.464;2022-08-19T04:12:30;23.40;84.20
65044;DHT22;51617;48.158;16.464;2022-08-19T04:14:55;23.30;84.90
65044;DHT22;51617;48.158;16.464;2022-08-19T04:17:21;23.20;84.80
65044;DHT22;51617;48.158;16.464;2022-08-19T04:19:47;23.20;85.30
65044;DHT22;51617;48.158;16.464;2022-08-19T04:22:12;23.20;85.80
65044;DHT22;51617;48.158;16.464;2022-08-19T04:24:38;23.10;86.00
65044;DHT22;51617;48.158;16.464;2022-08-19T04:27:04;23.20;85.70
65044;DHT22;51617;48.158;16.464;2022-08-19T04:29:31;23.30;85.60
65044;DHT22;51617;48.158;16.464;2022-08-19T04:31:57;23.30;85.50
65044;DHT22;51617;48.158;16.464;2022-08-19T04:34:24;23.40;85.60
65044;DHT22;51617;48.158;16.464;2022-08-19T04:36:50;23.40;85.20
65044;DHT22;51617;48.158;16.464;2022-08-19T04:39:17;23.60;84.90
65044;DHT22;51617;48.158;16.464;2022-08-19T04:41:44;23.60;84.60
65044;DHT22;51617;48.158;16.464;2022-08-19T04:44:29;23.70;84.50
65044;DHT22;51617;48.158;16.464;2022-08-19T04:46:56;23.80;84.20
65044;DHT22;51617;48.158;16.464;2022-08-19T04:49:22;23.90;84.10
65044;DHT22;51617;48.158;16.464;2022-08-19T04:51:48;23.90;83.90
65044;DHT22;51617;48.158;16.464;2022-08-19T04:54:15;23.90;84.00
65044;DHT22;51617;48.158;16.464;2022-08-19T04:56:40;23.90;83.90
65044;DHT22;51617;48.158;16.464;2022-08-19T04:59:06;24.00;83.50
65044;DHT22;51617;48.158;16.464;2022-08-19T05:01:32;24.00;83.80
65044;DHT22;51617;48.158;16.464;2022-08-19T05:03:59;24.10;83.60
65044;DHT22;51617;48.158;16.464;2022-08-19T05:06:25;24.20;83.50
65044;DHT22;51617;48.158;16.464;2022-08-19T05:08:51;24.30;83.20
65044;DHT22;51617;48.158;16.464;2022-08-19T05:11:18;24.40;83.10
65044;DHT22;51617;48.158;16.464;2022-08-19T05:13:45;24.50;82.90
65044;DHT22;51617;48.158;16.464;2022-08-19T05:16:11;24.50;82.70
65044;DHT22;51617;48.158;16.464;2022-08-19T05:18:37;24.60;82.60
65044;DHT22;51617;48.158;16.464;2022-08-19T05:21:21;24.70;82.40
65044;DHT22;51617;48.158;16.464;2022-08-19T05:24:06;24.80;82.30
65044;DHT22;51617;48.158;16.464;2022-08-19T05:26:37;24.90;82.20
65044;DHT22;51617;48.158;16.464;2022-08-19T05:29:03;25.00;81.80
65044;DHT22;51617;48.158;16.464;2022-08-19T05:31:29;25.00;81.50
65044;DHT22;51617;48.158;16.464;2022-08-19T05:33:55;25.00;81.50
65044;DHT22;51617;48.158;16.464;2022-08-19T05:36:24;25.00;81.50
65044;DHT22;51617;48.158;16.464;2022-08-19T05:38:49;25.00;81.00
65044;DHT22;51617;48.158;16.464;2022-08-19T05:41:15;25.00;81.10
65044;DHT22;51617;48.158;16.464;2022-08-19T05:43:42;25.10;81.10
65044;DHT22;51617;48.158;16.464;2022-08-19T05:46:07;25.10;81.00
65044;DHT22;51617;48.158;16.464;2022-08-19T05:48:34;25.10;81.10
65044;DHT22;51617;48.158;16.464;2022-08-19T05:51:03;25.10;80.70
65044;DHT22;51617;48.158;16.464;2022-08-19T05:53:29;25.10;80.60
65044;DHT22;51617;48.158;16.464;2022-08-19T05:55:54;25.10;80.70
65044;DHT22;51617;48.158;16.464;2022-08-19T05:58:20;25.10;81.10
65044;DHT22;51617;48.158;16.464;2022-08-19T06:00:45;25.00;80.10
65044;DHT22;51617;48.158;16.464;2022-08-19T06:03:11;25.10;80.10
65044;DHT22;51617;48.158;16.464;2022-08-19T06:05:36;25.10;80.80
65044;DHT22;51617;48.158;16.464;2022-08-19T06:08:02;25.10;80.90
65044;DHT22;51617;48.158;16.464;2022-08-19T06:10:27;25.00;80.90
65044;DHT22;51617;48.158;16.464;2022-08-19T06:12:53;25.00;81.10
65044;DHT22;51617;48.158;16.464;2022-08-19T06:15:18;25.00;80.90
65044;DHT22;51617;48.158;16.464;2022-08-19T06:17:44;25.10;80.80
65044;DHT22;51617;48.158;16.464;2022-08-19T06:20:10;25.10;80.70
65044;DHT22;51617;48.158;16.464;2022-08-19T06:22:37;25.20;80.80
65044;DHT22;51617;48.158;16.464;2022-08-19T06:25:03;25.20;80.50
65044;DHT22;51617;48.158;16.464;2022-08-19T06:27:29;25.10;80.60
65044;DHT22;51617;48.158;16.464;2022-08-19T06:29:56;25.20;80.40
65044;DHT22;51617;48.158;16.464;2022-08-19T06:32:21;25.20;80.50
65044;DHT22;51617;48.158;16.464;2022-08-19T06:34:47;25.20;80.50
65044;DHT22;51617;48.158;16.464;2022-08-19T06:37:13;25.20;80.40
65044;DHT22;51617;48.158;16.464;2022-08-19T06:39:39;25.20;80.30
65044;DHT22;51617;48.158;16.464;2022-08-19T06:42:06;25.30;79.80
65044;DHT22;51617;48.158;16.464;2022-08-19T06:44:35;25.40;79.60
65044;DHT22;51617;48.158;16.464;2022-08-19T06:47:05;25.40;79.20
65044;DHT22;51617;48.158;16.464;2022-08-19T06:49:32;25.50;79.10
65044;DHT22;51617;48.158;16.464;2022-08-19T06:51:58;25.60;78.80
65044;DHT22;51617;48.158;16.464;2022-08-19T06:54:24;25.70;78.40
65044;DHT22;51617;48.158;16.464;2022-08-19T06:56:50;25.70;78.20
65044;DHT22;51617;48.158;16.464;2022-08-19T06:59:17;25.80;77.90
65044;DHT22;51617;48.158;16.464;2022-08-19T07:01:46;26.00;77.50
65044;DHT22;51617;48.158;16.464;2022-08-19T07:04:13;26.10;77.40
65044;DHT22;51617;48.158;16.464;2022-08-19T07:06:39;26.20;76.70
65044;DHT22;51617;48.158;16.464;2022-08-19T07:09:05;26.20;76.50
65044;DHT22;51617;48.158;16.464;2022-08-19T07:11:31;26.30;76.00
65044;DHT22;51617;48.158;16.464;2022-08-19T07:13:58;26.40;76.20
65044;DHT22;51617;48.158;16.464;2022-08-19T07:16:23;26.40;76.00
65044;DHT22;51617;48.158;16.464;2022-08-19T07:18:49;26.60;75.50
65044;DHT22;51617;48.158;16.464;2022-08-19T07:21:17;26.80;74.90
65044;DHT22;51617;48.158;16.464;2022-08-19T07:23:43;26.90;74.80
65044;DHT22;51617;48.158;16.464;2022-08-19T07:26:30;26.90;74.40
65044;DHT22;51617;48.158;16.464;2022-08-19T07:28:57;26.90;74.10
65044;DHT22;51617;48.158;16.464;2022-08-19T07:31:24;26.90;74.40
65044;DHT22;51617;48.158;16.464;2022-08-19T07:33:50;27.00;74.40
65044;DHT22;51617;48.158;16.464;2022-08-19T07:36:17;27.20;74.10
65044;DHT22;51617;48.158;16.464;2022-08-19T07:38:44;27.30;73.10
65044;DHT22;51617;48.158;16.464;2022-08-19T07:41:11;27.30;73.00
65044;DHT22;51617;48.158;16.464;2022-08-19T07:43:37;27.20;73.30
65044;DHT22;51617;48.158;16.464;2022-08-19T07:46:03;27.20;73.20
65044;DHT22;51617;48.158;16.464;2022-08-19T07:48:28;27.30;73.40
65044;DHT22;51617;48.158;16.464;2022-08-19T07:50:54;27.40;73.00
65044;DHT22;51617;48.158;16.464;2022-08-19T07:53:21;27.50;72.60
65044;DHT22;51617;48.158;16.464;2022-08-19T07:55:46;27.60;72.50
65044;DHT22;51617;48.158;16.464;2022-08-19T07:58:13;27.90;72.20
65044;DHT22;51617;48.158;16.464;2022-08-19T08:00:39;28.10;71.40
65044;DHT22;51617;48.158;16.464;2022-08-19T08:03:05;28.20;71.30
65044;DHT22;51617;48.158;16.464;2022-08-19T08:05:31;28.30;70.40
65044;DHT22;51617;48.158;16.464;2022-08-19T08:08:15;28.30;70.50
65044;DHT22;51617;48.158;16.464;2022-08-19T08:10:59;28.20;69.40
65044;DHT22;51617;48.158;16.464;2022-08-19T08:13:25;28.20;70.90
65044;DHT22;51617;48.158;16.464;2022-08-19T08:15:50;28.30;70.00
65044;DHT22;51617;48.158;16.464;2022-08-19T08:18:16;28.40;69.50
65044;DHT22;51617;48.158;16.464;2022-08-19T08:20:41;28.50;70.30
65044;DHT22;51617;48.158;16.464;2022-08-19T08:23:07;28.50;69.40
65044;DHT22;51617;48.158;16.464;2022-08-19T08:25:47;28.60;69.20
65044;DHT22;51617;48.158;16.464;2022-08-19T08:28:14;28.70;69.20
65044;DHT22;51617;48.158;16.464;2022-08-19T08:30:39;28.80;68.70
65044;DHT22;51617;48.158;16.464;2022-08-19T08:33:07;29.00;68.70
65044;DHT22;51617;48.158;16.464;2022-08-19T08:35:32;29.20;68.10
65044;DHT22;51617;48.158;16.464;2022-08-19T08:37:58;29.30;67.20
65044;DHT22;51617;48.158;16.464;2022-08-19T08:43:22;29.40;66.20
65044;DHT22;51617;48.158;16.464;2022-08-19T08:46:10;29.40;63.40
65044;DHT22;51617;48.158;16.464;2022-08-19T08:51:00;29.60;64.10
65044;DHT22;51617;48.158;16.464;2022-08-19T08:53:26;29.60;63.40
65044;DHT22;51617;48.158;16.464;2022-08-19T08:55:52;29.70;63.50
65044;DHT22;51617;48.158;16.464;2022-08-19T08:58:20;29.70;63.40
65044;DHT22;51617;48.158;16.464;2022-08-19T09:00:49;29.80;64.00
65044;DHT22;51617;48.158;16.464;2022-08-19T09:03:21;29.90;63.50
65044;DHT22;51617;48.158;16.464;2022-08-19T09:06:07;29.90;62.70
65044;DHT22;51617;48.158;16.464;2022-08-19T09:08:45;29.80;62.70
65044;DHT22;51617;48.158;16.464;2022-08-19T09:11:14;29.90;63.20
65044;DHT22;51617;48.158;16.464;2022-08-19T09:13:43;29.90;63.10
65044;DHT22;51617;48.158;16.464;2022-08-19T09:16:15;30.10;62.50
65044;DHT22;51617;48.158;16.464;2022-08-19T09:21:06;30.00;62.10
65044;DHT22;51617;48.158;16.464;2022-08-19T09:23:34;30.00;61.80
65044;DHT22;51617;48.158;16.464;2022-08-19T09:25:59;30.20;61.50
65044;DHT22;51617;48.158;16.464;2022-08-19T09:28:25;30.20;61.80
65044;DHT22;51617;48.158;16.464;2022-08-19T09:30:51;30.10;61.60
65044;DHT22;51617;48.158;16.464;2022-08-19T09:33:16;28.70;60.30
65044;DHT22;51617;48.158;16.464;2022-08-19T09:35:42;30.10;61.50
65044;DHT22;51617;48.158;16.464;2022-08-19T09:38:08;30.10;61.40
65044;DHT22;51617;48.158;16.464;2022-08-19T09:40:33;30.20;61.80
65044;DHT22;51617;48.158;16.464;2022-08-19T09:42:59;30.30;61.70
65044;DHT22;51617;48.158;16.464;2022-08-19T09:45:28;30.50;61.40
65044;DHT22;51617;48.158;16.464;2022-08-19T09:47:53;30.50;60.50
65044;DHT22;51617;48.158;16.464;2022-08-19T09:50:19;30.60;60.20
65044;DHT22;51617;48.158;16.464;2022-08-19T09:52:45;30.50;59.70
65044;DHT22;51617;48.158;16.464;2022-08-19T09:55:11;30.50;59.40
65044;DHT22;51617;48.158;16.464;2022-08-19T09:57:37;30.80;60.10
65044;DHT22;51617;48.158;16.464;2022-08-19T10:00:03;30.60;59.70
65044;DHT22;51617;48.158;16.464;2022-08-19T10:02:29;30.70;59.10
65044;DHT22;51617;48.158;16.464;2022-08-19T10:04:54;30.80;59.60
65044;DHT22;51617;48.158;16.464;2022-08-19T10:07:38;30.90;60.50
65044;DHT22;51617;48.158;16.464;2022-08-19T10:10:04;31.20;59.70
65044;DHT22;51617;48.158;16.464;2022-08-19T10:12:31;31.40;59.10
65044;DHT22;51617;48.158;16.464;2022-08-19T10:14:58;31.50;57.30
65044;DHT22;51617;48.158;16.464;2022-08-19T10:17:24;31.60;58.00
65044;DHT22;51617;48.158;16.464;2022-08-19T10:19:50;31.70;58.30
65044;DHT22;51617;48.158;16.464;2022-08-19T10:22:17;31.70;58.20
65044;DHT22;51617;48.158;16.464;2022-08-19T10:24:42;31.90;58.10
65044;DHT22;51617;48.158;16.464;2022-08-19T10:27:08;32.10;57.60
65044;DHT22;51617;48.158;16.464;2022-08-19T10:29:34;32.20;57.40
65044;DHT22;51617;48.158;16.464;2022-08-19T10:32:00;32.20;56.30
65044;DHT22;51617;48.158;16.464;2022-08-19T10:34:27;32.10;56.70
65044;DHT22;51617;48.158;16.464;2022-08-19T10:36:53;32.10;56.90
65044;DHT22;51617;48.158;16.464;2022-08-19T10:39:18;31.90;57.70
65044;DHT22;51617;48.158;16.464;2022-08-19T10:41:44;31.80;58.00
65044;DHT22;51617;48.158;16.464;2022-08-19T10:44:10;31.70;58.40
65044;DHT22;51617;48.158;16.464;2022-08-19T10:46:37;31.60;57.80
65044;DHT22;51617;48.158;16.464;2022-08-19T10:49:03;31.50;57.80
65044;DHT22;51617;48.158;16.464;2022-08-19T10:51:29;31.60;58.90
65044;DHT22;51617;48.158;16.464;2022-08-19T10:54:13;31.80;58.50
65044;DHT22;51617;48.158;16.464;2022-08-19T10:56:39;31.90;58.50
65044;DHT22;51617;48.158;16.464;2022-08-19T10:59:17;32.00;59.60
65044;DHT22;51617;48.158;16.464;2022-08-19T11:01:43;31.80;58.60
65044;DHT22;51617;48.158;16.464;2022-08-19T11:04:09;31.40;58.10
65044;DHT22;51617;48.158;16.464;2022-08-19T11:06:41;31.20;58.90
65044;DHT22;51617;48.158;16.464;2022-08-19T11:09:08;30.80;61.10
65044;DHT22;51617;48.158;16.464;2022-08-19T11:11:34;30.20;64.30
65044;DHT22;51617;48.158;16.464;2022-08-19T11:14:12;29.70;64.80
65044;DHT22;51617;48.158;16.464;2022-08-19T11:16:39;29.20;66.30
65044;DHT22;51617;48.158;16.464;2022-08-19T11:19:06;29.00;69.30
65044;DHT22;51617;48.158;16.464;2022-08-19T11:21:37;28.70;74.30
65044;DHT22;51617;48.158;16.464;2022-08-19T11:24:04;28.40;76.00
65044;DHT22;51617;48.158;16.464;2022-08-19T11:26:31;28.30;77.50
65044;DHT22;51617;48.158;16.464;2022-08-19T11:28:57;28.40;78.20
65044;DHT22;51617;48.158;16.464;2022-08-19T11:31:24;28.70;78.70
65044;DHT22;51617;48.158;16.464;2022-08-19T11:33:50;29.10;79.50
65044;DHT22;51617;48.158;16.464;2022-08-19T11:36:17;29.90;77.10
65044;DHT22;51617;48.158;16.464;2022-08-19T11:38:43;30.00;76.80
65044;DHT22;51617;48.158;16.464;2022-08-19T11:41:08;30.40;71.60
65044;DHT22;51617;48.158;16.464;2022-08-19T11:43:34;30.70;70.90
65044;DHT22;51617;48.158;16.464;2022-08-19T11:46:03;30.80;70.00
65044;DHT22;51617;48.158;16.464;2022-08-19T11:48:28;30.80;69.40
65044;DHT22;51617;48.158;16.464;2022-08-19T11:50:54;31.10;68.90
65044;DHT22;51617;48.158;16.464;2022-08-19T11:53:21;31.50;67.50
65044;DHT22;51617;48.158;16.464;2022-08-19T11:55:47;31.90;65.80
65044;DHT22;51617;48.158;16.464;2022-08-19T11:58:13;32.20;65.00
65044;DHT22;51617;48.158;16.464;2022-08-19T12:00:40;32.40;63.90
65044;DHT22;51617;48.158;16.464;2022-08-19T12:03:06;32.40;63.40
65044;DHT22;51617;48.158;16.464;2022-08-19T12:05:32;32.50;60.90
65044;DHT22;51617;48.158;16.464;2022-08-19T12:07:57;32.60;59.80
65044;DHT22;51617;48.158;16.464;2022-08-19T12:10:23;32.60;59.10
65044;DHT22;51617;48.158;16.464;2022-08-19T12:12:49;32.70;60.10
65044;DHT22;51617;48.158;16.464;2022-08-19T12:15:14;32.70;59.90
65044;DHT22;51617;48.158;16.464;2022-08-19T12:17:40;32.80;59.50
65044;DHT22;51617;48.158;16.464;2022-08-19T12:20:07;32.70;60.70
65044;DHT22;51617;48.158;16.464;2022-08-19T12:22:34;32.60;60.40
65044;DHT22;51617;48.158;16.464;2022-08-19T12:25:00;32.90;58.70
65044;DHT22;51617;48.158;16.464;2022-08-19T12:27:26;33.20;58.50
65044;DHT22;51617;48.158;16.464;2022-08-19T12:29:51;33.30;58.80
65044;DHT22;51617;48.158;16.464;2022-08-19T12:32:17;33.40;58.10
65044;DHT22;51617;48.158;16.464;2022-08-19T12:34:42;33.40;57.30
65044;DHT22;51617;48.158;16.464;2022-08-19T12:37:08;33.30;57.30
65044;DHT22;51617;48.158;16.464;2022-08-19T12:39:40;33.20;58.10
65044;DHT22;51617;48.158;16.464;2022-08-19T12:42:07;33.10;58.30
65044;DHT22;51617;48.158;16.464;2022-08-19T12:44:33;32.80;58.50
65044;DHT22;51617;48.158;16.464;2022-08-19T12:46:59;32.40;58.80
65044;DHT22;51617;48.158;16.464;2022-08-19T12:49:26;32.10;59.70
65044;DHT22;51617;48.158;16.464;2022-08-19T12:51:52;31.90;60.90
65044;DHT22;51617;48.158;16.464;2022-08-19T12:54:18;31.70;61.20
65044;DHT22;51617;48.158;16.464;2022-08-19T12:56:43;31.50;61.50
65044;DHT22;51617;48.158;16.464;2022-08-19T12:59:09;31.50;61.30
65044;DHT22;51617;48.158;16.464;2022-08-19T13:01:36;31.60;60.70
65044;DHT22;51617;48.158;16.464;2022-08-19T13:04:02;31.50;60.20
65044;DHT22;51617;48.158;16.464;2022-08-19T13:06:27;31.60;60.40
65044;DHT22;51617;48.158;16.464;2022-08-19T13:08:53;31.70;60.60
65044;DHT22;51617;48.158;16.464;2022-08-19T13:11:19;31.60;59.90
65044;DHT22;51617;48.158;16.464;2022-08-19T13:13:46;31.50;60.00
65044;DHT22;51617;48.158;16.464;2022-08-19T13:16:12;31.50;60.20
65044;DHT22;51617;48.158;16.464;2022-08-19T13:18:39;31.30;60.30
65044;DHT22;51617;48.158;16.464;2022-08-19T13:21:05;31.20;60.20
65044;DHT22;51617;48.158;16.464;2022-08-19T13:23:32;31.20;59.30
65044;DHT22;51617;48.158;16.464;2022-08-19T13:26:02;31.10;59.10
65044;DHT22;51617;48.158;16.464;2022-08-19T13:28:28;31.00;58.60
65044;DHT22;51617;48.158;16.464;2022-08-19T13:31:20;30.90;58.50
65044;DHT22;51617;48.158;16.464;2022-08-19T13:34:05;30.80;59.30
65044;DHT22;51617;48.158;16.464;2022-08-19T13:36:33;30.60;59.80
65044;DHT22;51617;48.158;16.464;2022-08-19T13:38:59;30.50;60.10
65044;DHT22;51617;48.158;16.464;2022-08-19T13:41:25;30.50;60.50
65044;DHT22;51617;48.158;16.464;2022-08-19T13:43:51;30.40;62.00
65044;DHT22;51617;48.158;16.464;2022-08-19T13:46:17;30.30;63.60
65044;DHT22;51617;48.158;16.464;2022-08-19T13:48:45;30.20;65.20
65044;DHT22;51617;48.158;16.464;2022-08-19T13:51:11;30.10;67.20
65044;DHT22;51617;48.158;16.464;2022-08-19T13:53:37;30.00;68.30
65044;DHT22;51617;48.158;16.464;2022-08-19T13:56:07;29.90;67.80
65044;DHT22;51617;48.158;16.464;2022-08-19T13:58:33;29.80;68.20
65044;DHT22;51617;48.158;16.464;2022-08-19T14:00:58;29.80;69.30
65044;DHT22;51617;48.158;16.464;2022-08-19T14:03:25;29.80;68.40
65044;DHT22;51617;48.158;16.464;2022-08-19T14:05:50;29.80;67.90
65044;DHT22;51617;48.158;16.464;2022-08-19T14:08:16;29.80;68.30
65044;DHT22;51617;48.158;16.464;2022-08-19T14:10:42;29.80;67.90
65044;DHT22;51617;48.158;16.464;2022-08-19T14:13:10;29.80;66.90
65044;DHT22;51617;48.158;16.464;2022-08-19T14:15:35;29.90;66.10
65044;DHT22;51617;48.158;16.464;2022-08-19T14:18:02;30.10;66.30
65044;DHT22;51617;48.158;16.464;2022-08-19T14:20:28;30.40;65.40
65044;DHT22;51617;48.158;16.464;2022-08-19T14:22:53;30.70;65.70
65044;DHT22;51617;48.158;16.464;2022-08-19T14:25:25;31.00;64.80
65044;DHT22;51617;48.158;16.464;2022-08-19T14:27:52;31.20;64.00
65044;DHT22;51617;48.158;16.464;2022-08-19T14:30:19;31.30;63.20
65044;DHT22;51617;48.158;16.464;2022-08-19T14:32:44;31.30;62.50
65044;DHT22;51617;48.158;16.464;2022-08-19T14:35:11;31.20;63.00
65044;DHT22;51617;48.158;16.464;2022-08-19T14:37:37;31.20;62.60
65044;DHT22;51617;48.158;16.464;2022-08-19T14:40:03;31.20;62.50
65044;DHT22;51617;48.158;16.464;2022-08-19T14:42:29;31.10;62.40
65044;DHT22;51617;48.158;16.464;2022-08-19T14:44:58;31.10;62.20
65044;DHT22;51617;48.158;16.464;2022-08-19T14:47:24;31.10;62.50
65044;DHT22;51617;48.158;16.464;2022-08-19T14:49:50;31.10;61.80
65044;DHT22;51617;48.158;16.464;2022-08-19T14:52:15;31.00;62.10
65044;DHT22;51617;48.158;16.464;2022-08-19T14:54:41;30.80;62.30
65044;DHT22;51617;48.158;16.464;2022-08-19T14:57:06;30.70;62.60
65044;DHT22;51617;48.158;16.464;2022-08-19T14:59:33;30.70;63.00
65044;DHT22;51617;48.158;16.464;2022-08-19T15:01:59;30.70;62.50
65044;DHT22;51617;48.158;16.464;2022-08-19T15:04:25;30.70;61.80
65044;DHT22;51617;48.158;16.464;2022-08-19T15:06:50;30.90;60.80
65044;DHT22;51617;48.158;16.464;2022-08-19T15:09:16;31.20;61.00
65044;DHT22;51617;48.158;16.464;2022-08-19T15:11:42;31.50;60.00
65044;DHT22;51617;48.158;16.464;2022-08-19T15:14:07;31.80;59.00
65044;DHT22;51617;48.158;16.464;2022-08-19T15:16:35;32.00;58.80
65044;DHT22;51617;48.158;16.464;2022-08-19T15:19:00;32.40;57.70
65044;DHT22;51617;48.158;16.464;2022-08-19T15:21:26;32.90;56.70
65044;DHT22;51617;48.158;16.464;2022-08-19T15:23:52;33.10;55.20
65044;DHT22;51617;48.158;16.464;2022-08-19T15:26:18;33.80;53.90
65044;DHT22;51617;48.158;16.464;2022-08-19T15:28:44;34.00;52.50